ADDS METAR Data INFO
IDs: Format: Raw Decoded Include TAF

Data at: 1748 UTC 15 Dec 2017

KDEC 151654Z 30015G20KT 10SM FEW026 SCT045 01/M07 A3006 RMK AO2 SLP186 T00061067
KDEC 151554Z 31010G18KT 10SM OVC045 M01/M06 A3006 RMK AO2 SLP187 T10061061
KDEC 151536Z 30009KT 10SM SCT025 OVC047 M01/M06 A3006 RMK AO2 T10061056
KDEC 151454Z 28008KT 10SM OVC029 M01/M06 A3005 RMK AO2 SLP184 T10111056 53004
KDEC 151435Z 27009KT 10SM BKN029 OVC045 M02/M06 A3004 RMK AO2 T10171061
KDEC 151354Z 25008KT 10SM FEW037 OVC046 M02/M06 A3004 RMK AO2 SLP181 T10221061
KDEC 151254Z 24009KT 10SM FEW029 OVC046 M03/M07 A3003 RMK AO2 SLP179 T10281067
KDEC 151232Z 23010KT 10SM SCT029 OVC047 M03/M07 A3004 RMK AO2 T10281067
KDEC 151213Z 24009KT 10SM BKN029 OVC047 M03/M07 A3004 RMK AO2 T10331072
KDEC 151154Z 23009KT 10SM FEW030 OVC048 M03/M07 A3004 RMK AO2 SLP181 7//// T10331072 11033 21056 55004
KDEC 151054Z AUTO 23007KT 10SM BKN048 M04/M08 A3004 RMK AO2 SLP180 T10391078
KDEC 151024Z AUTO 23005KT 10SM SCT029 M04/M08 A3004 RMK AO2 T10441083
KDEC 151006Z AUTO 25004KT 10SM OVC029 M04/M08 A3004 RMK AO2 T10391078
KDEC 150954Z AUTO 26006KT 10SM OVC030 M04/M08 A3005 RMK AO2 SLP182 T10391078
KDEC 150925Z AUTO 26006KT 10SM OVC030 M04/M08 A3005 RMK AO2 T10391078
KDEC 150854Z AUTO 23005KT 10SM BKN027 M05/M08 A3005 RMK AO2 SLP185 T10501078 56006
KDEC 150754Z AUTO 25004KT 10SM FEW032 M04/M08 A3006 RMK AO2 SLP186 T10441083
KDEC 150654Z AUTO 25005KT 10SM CLR M04/M08 A3006 RMK AO2 SLP185 T10441083
KDEC 150554Z AUTO 24004KT 10SM CLR M05/M08 A3007 RMK AO2 SLPNO T10501083 11028 21050 400001061 58013
KDEC 150454Z AUTO 25004KT 10SM CLR M05/M09 A3010 RMK AO2 SLPNO T10501089
KDEC 150354Z 24003KT 10SM CLR M04/M09 A3010 RMK AO2 SLP201 T10391089
KDEC 150254Z 30006KT 10SM OVC032 M03/M08 A3011 RMK AO2 SLP205 T10331083 50008
KDEC 150154Z 29005KT 10SM FEW032 M03/M09 A3011 RMK AO2 SLP206 T10331094
KDEC 150054Z 31005KT 10SM CLR M03/M10 A3010 RMK AO2 SLP202 T10331100
KDEC 142354Z 30004KT 10SM CLR M03/M09 A3009 RMK AO2 SLP197 6//// T10331094 10000 21033 51007
KDEC 142254Z 28005KT 10SM CLR M02/M09 A3008 RMK AO2 SLP193 T10221094
KDEC 142154Z 26004KT 10SM OVC037 M01/M09 A3008 RMK AO2 SLP192 T10061089
KDEC 142054Z 22005KT 10SM OVC040 M01/M08 A3006 RMK AO2 SLP188 6//// T10061083 55004
KDEC 141954Z 25003KT 10SM OVC037 M01/M08 A3005 RMK AO2 SLP184 T10061083
KDEC 141854Z 26003KT 10SM OVC039 M01/M08 A3006 RMK AO2 SLP188 T10061083
KDEC 141755Z 35005KT 10SM OVC038 M/M A3007
KDEC 141754Z OVC039 A3007 RMK AO2 SLPNO 6//// 50001 PNO $
KDEC 141701Z 34007KT 10SM OVC037 M02/M09 3009 RMK ASOS OTS
KDEC 141654Z OVC037 A3009 RMK AO2 SLPNO PNO $
KDEC 141554Z 35008KT 10SM CLR M03/M09 A3010 RMK AO2 SLP201 T10331089
KDEC 141454Z 35008KT 10SM FEW031 M04/M08 A3007 RMK AO2 SLP191 T10441083 53026
KDEC 141354Z 35007KT 10SM CLR M06/M09 A3003 RMK AO2 SLP177 T10561089
KDEC 141254Z 36009KT 10SM FEW033 M06/M09 A3001 RMK AO2 SLP170 T10561089
KDEC 141154Z 35011KT 10SM OVC031 M04/M08 A2999 RMK AO2 SLP163 T10391083 11011 21039 53019
KDEC 141114Z AUTO 01008KT 10SM OVC031 M03/M08 A2997 RMK AO2 T10331083
KDEC 141054Z AUTO 36012KT 10SM OVC029 M03/M08 A2996 RMK AO2 SLP153 T10331083
KDEC 140954Z AUTO 36009KT 10SM OVC027 M03/M08 A2995 RMK AO2 SLP146 T10281083
KDEC 140854Z AUTO 36015KT 10SM OVC029 M03/M08 A2993 RMK AO2 SLP141 T10281083 51019
KDEC 140851Z AUTO 35015G19KT 10SM OVC029 M02/M08 A2993 RMK AO2
KDEC 140754Z AUTO 36014KT 10SM OVC033 M02/M08 A2990 RMK AO2 SLP130 T10221083
KDEC 140654Z AUTO 35013KT 10SM OVC031 M02/M08 A2988 RMK AO2 SLP121 T10171083
KDEC 140613Z AUTO 33016G22KT 10SM BKN029 OVC035 M01/M07 A2985 RMK AO2 T10111067
KDEC 140554Z AUTO 33015G26KT 10SM OVC032 M01/M07 A2984 RMK AO2 PK WND 33029/0532 SLP110 T10111067 10039 21011 400831072 53042